• Join FlightAware (Why Join?)
  • Login
  • US Flag 
03:54AM EDT


 

Airport Tracker/Info


-or-


 

Live Flight TrackerFlight Track Log ✈ AWE3417 ✈ 07-Jul-2013 ✈ KSDF - KDCA

Flight Track Log - Related Links

Times and Time Zones

All times are in EDT time to prevent confusion due to time zone crossing. See the AWE3417 flight status page for this flight to view local times or setup timezone preferences in your user account.

Time Position Orientation Groundspeed Altitude Reporting Facility
EDT Latitude Longitude Course Direction KTS MPH feet Rate Location/Type
08:13PM 38.1167 -85.7167 79° East 200 230 2,700  Level Louisville TRACON
08:14PM 38.0483 -85.7019 170° South 251 289 5,200 2,640 Climbing Indianapolis Center
08:15PM 37.9717 -85.6756 165° South 272 313 8,300 2,760 Climbing Indianapolis Center
08:16PM 37.9442 -85.5753 109° East 307 353 11,000 2,820 Climbing Indianapolis Center
08:17PM 37.9642 -84.4951 122° Southeast  Level FlightAware Approximate
08:17PM 37.9639 -85.4336 80° East 335 386 14,100  Level Indianapolis Center
08:18PM 37.9782 -84.2838 79° East  Level FlightAware Approximate
08:18PM 37.9775 -85.3092 82° East 351 404 16,300  Level Indianapolis Center
08:19PM 37.9939 -85.1792 81° East 369 425 18,600 1,980 Climbing Indianapolis Center
08:20PM 38.0097 -85.0442 81° East 386 444 20,400 1,800 Climbing Indianapolis Center
08:21PM 38.0278 -84.9008 81° East 407 468 22,300 1,680 Climbing Indianapolis Center
08:22PM 38.0428 -84.7550 83° East 415 478 23,900 1,620 Climbing Indianapolis Center
08:23PM 38.0658 -84.6100 79° East 419 482 25,700 1,620 Climbing Indianapolis Center
08:24PM 38.1647 -84.4878 44° Northeast 429 494 27,300 1,440 Climbing Indianapolis Center
08:25PM 38.2603 -84.3989 36° Northeast 425 489 28,700 780 Climbing Indianapolis Center
08:27PM 38.3589 -84.3083 36° Northeast 432 497 29,000 120 Climbing Indianapolis Center
08:28PM 38.4561 -84.2167 36° Northeast 433 498 29,000  Level Indianapolis Center
08:29PM 38.5528 -84.1256 36° Northeast 431 496 29,000  Level Indianapolis Center
08:30PM 38.6492 -84.0356 36° Northeast 432 497 29,000  Level Indianapolis Center
08:31PM 38.7458 -83.9439 36° Northeast 431 496 29,000  Level Indianapolis Center
08:32PM 38.8428 -83.8544 36° Northeast 427 491 29,000  Level Indianapolis Center
08:33PM 38.9583 -83.7458 36° Northeast 435 501 29,000  Level Indianapolis Center
08:34PM 39.0544 -83.6522 37° Northeast 433 498 29,000  Level Indianapolis Center
08:35PM 39.1508 -83.5597 37° Northeast 429 494 29,000  Level Indianapolis Center
08:36PM 39.2267 -83.4444 50° Northeast 431 496 29,000  Level Indianapolis Center
08:37PM 39.2517 -83.2867 78° East 447 514 29,000  Level Indianapolis Center
08:38PM 39.2731 -83.1275 80° East 448 516 29,000  Level Indianapolis Center
08:39PM 39.2947 -82.9639 80° East 457 526 29,000  Level Indianapolis Center
08:40PM 39.3172 -82.8019 80° East 457 526 29,000  Level Indianapolis Center
08:41PM 39.3414 -82.6119 81° East 458 527 29,000  Level Indianapolis Center
08:42PM 39.3608 -82.4631 80° East 452 520 29,000  Level Indianapolis Center
08:43PM 39.3808 -82.3014 81° East 455 524 29,000  Level Indianapolis Center
08:44PM 39.4017 -82.1383 81° East 457 526 29,000  Level Indianapolis Center
08:45PM 39.4225 -81.9753 81° East 459 528 29,000  Level Indianapolis Center
08:46PM 39.4431 -81.8094 81° East 463 533 29,000  Level Indianapolis Center
08:47PM 39.4631 -81.6425 81° East 467 537 29,000  Level Indianapolis Center
08:48PM 39.4875 -81.4436 81° East 463 533 29,000  Level Indianapolis Center
08:49PM 39.5067 -81.2778 81° East 462 532 29,000  Level Indianapolis Center
08:50PM 39.5264 -81.1133 81° East 460 529 29,000  Level Indianapolis Center
08:51PM 39.5444 -80.9506 82° East 457 526 29,000  Level Indianapolis Center
08:52PM 39.5633 -80.7881 81° East 455 524 29,000  Level Indianapolis Center
08:53PM 39.5533 -80.6328 95° East 438 504 29,000  Level Indianapolis Center
08:54PM 39.5067 -80.4906 113° Southeast 426 490 29,000  Level Indianapolis Center
08:55PM 39.4642 -80.3511 112° Southeast 419 482 29,000  Level Indianapolis Center
08:56PM 39.4436 -80.2731 109° East 410 472 29,000  Level Washington Center
08:57PM 39.3986 -80.1386 113° Southeast 410 472 29,000  Level Washington Center
08:58PM 39.3536 -80.0017 113° Southeast 405 466 29,000  Level Washington Center
08:59PM 39.3086 -79.8647 113° Southeast 405 466 29,000  Level Washington Center
09:00PM 39.2886 -79.7242 100° East 416 479 29,000  Level Washington Center
09:01PM 39.2772 -79.5681 95° East 427 491 29,000  Level Washington Center
09:02PM 39.2633 -79.4169 97° East 433 498 29,000 -420 Level Washington Center
09:03PM 39.2478 -79.2472 97° East 433 498 28,200 -1,140 Descending Washington Center
09:04PM 39.2336 -79.0886 97° East 428 493 26,800 -1,320 Descending Washington Center
09:05PM 39.2214 -78.9353 96° East 428 493 25,600 -1,860 Descending Washington Center
09:06PM 39.2067 -78.7819 97° East 428 493 23,200 -2,460 Descending Washington Center
09:07PM 39.1917 -78.6367 98° East 421 484 20,700 -2,400 Descending Washington Center
09:08PM 39.1764 -78.4939 98° East 411 473 18,500 -1,980 Descending Washington Center
09:09PM 39.1589 -78.3542 99° East 406 467 16,900 -780 Descending Washington Center
09:10PM 39.1286 -78.2244 107° East 386 444 17,000 -60 Climbing Washington Center
09:11PM 39.0958 -78.0922 108° East 381 438 16,800 -1,140 Descending Washington Center
09:12PM 39.0631 -77.9656 108° East 381 438 14,800 -1,860 Descending Washington Center
09:13PM 39.0358 -77.8578 108° East 363 418 13,100 -1,800 Descending Washington Center
09:14PM 39.0047 -77.7392 109° East 326 375 11,300 -1,680 Descending Washington Center
09:15PM 38.9794 -77.6425 109° East 321 369 9,800 -1,260 Descending Washington Center
09:16PM 38.9500 -77.5500 112° Southeast 300 345 9,000 -1,020 Descending Potomac TRACON
09:17PM 38.9167 -77.4500 113° Southeast 290 334 8,000 -1,200 Descending Potomac TRACON
09:18PM 38.8667 -77.3667 128° Southeast 283 326 6,600 -1,020 Descending Potomac TRACON
09:19PM 38.8333 -77.2667 113° Southeast 279 321 6,000 -720 Descending Potomac TRACON
09:20PM 38.8000 -77.1833 117° Southeast 275 316 5,200 -1,200 Descending Potomac TRACON
09:20PM 38.7667 -77.1167 123° Southeast 274 315 3,800 -1,320 Descending Potomac TRACON
09:21PM 38.7000 -77.1167 180° South 240 276 2,700 -660 Descending Potomac TRACON
09:23PM 38.6667 -77.0500 123° Southeast 205 236 2,500 -360 Descending Potomac TRACON
09:24PM 38.7167 -77.0167 27° Northeast 185 213 2,000 -540 Descending Potomac TRACON